Terminal Aerodrome Forecast
Issued by NWS Amarillo, TX

Home | Current Version | Previous Version | Text Only | Print | Product List | Glossary On
Versions: 1 2 3 4 5 6 7 8 9 10 11 12 13 14 15 16 17 18 19 20 21 22 23 24 25 26 27
000
FTUS44 KAMA 252058 AAB
TAFAMA
TAF AMD
KAMA 252058Z 2521/2618 02008KT P6SM SCT050 BKN250
      TEMPO 2522/2602 3SM TSRA BKN020CB
     FM260600 14007KT P6SM BKN025 PROB30 2606/2609 4SM -TSRA
      BKN010CB
     FM261600 17012KT P6SM SCT025=

USA.gov is the U.S. government's official web portal to all federal, state and local government web resources and services.